Time;durP1;ratioP1;P1;durP2;ratioP2;P2;SDS_P1;SDS_P2;PMS_P1;PMS_P2;Temp;Humidity;BMP_temperature;BMP_pressure;BME280_temperature;BME280_humidity;BME280_pressure;Samples;Min_cycle;Max_cycle;Signal;HPM_P1;HPM_P2
2020/12/09 00:00:54;;;;;;;3.15;2.42;;;;;;;17.24;53.35;100867.97;4837801;29;20042;-79
2020/12/09 00:03:19;;;;;;;3.55;2.33;;;;;;;17.24;53.19;100873.19;4813771;29;20034;-79
2020/12/09 00:05:45;;;;;;;3.25;2.50;;;;;;;17.21;52.94;100873.22;4829017;29;20030;-79
2020/12/09 00:08:11;;;;;;;3.47;2.40;;;;;;;17.21;53.05;100878.41;4845925;29;20068;-79
2020/12/09 00:10:37;;;;;;;4.57;2.65;;;;;;;17.21;53.01;100878.41;4830170;29;20041;-79
2020/12/09 00:13:03;;;;;;;4.50;2.60;;;;;;;17.20;53.11;100877.56;4834468;29;20458;-79
2020/12/09 00:15:28;;;;;;;3.40;2.42;;;;;;;17.20;52.95;100887.97;4832816;29;20120;-79
2020/12/09 00:17:53;;;;;;;3.55;2.22;;;;;;;17.21;52.98;100881.00;4828491;29;20082;-79
2020/12/09 00:20:19;;;;;;;3.28;2.33;;;;;;;17.19;53.30;100881.00;4830890;29;20034;-79
2020/12/09 00:22:44;;;;;;;3.33;2.60;;;;;;;17.20;52.83;100881.88;4827792;29;20053;-79
2020/12/09 00:25:09;;;;;;;3.83;2.40;;;;;;;17.20;52.83;100876.66;4843497;29;20129;-79
2020/12/09 00:27:35;;;;;;;2.75;2.20;;;;;;;17.18;52.92;100881.03;4846627;29;20034;-79
2020/12/09 00:30:02;;;;;;;2.83;2.30;;;;;;;17.17;52.91;100874.09;4835545;29;20045;-79
2020/12/09 00:32:29;;;;;;;3.65;2.10;;;;;;;17.16;52.90;100874.97;4847391;29;20042;-79
2020/12/09 00:34:54;;;;;;;3.13;2.22;;;;;;;17.15;53.04;100874.09;4830893;29;20118;-79
2020/12/09 00:37:19;;;;;;;3.10;2.38;;;;;;;17.17;52.89;100874.09;4830692;29;20069;-79
2020/12/09 00:39:45;;;;;;;2.85;2.08;;;;;;;17.15;52.92;100878.44;4842689;29;20034;-79
2020/12/09 00:42:10;;;;;;;2.45;2.00;;;;;;;17.14;52.64;100882.78;4813160;29;20554;-79
2020/12/09 00:44:35;;;;;;;3.45;2.42;;;;;;;17.14;52.63;100879.34;4843416;29;20030;-79
2020/12/09 00:47:01;;;;;;;3.10;2.38;;;;;;;17.15;52.91;100884.50;4832904;29;20042;-79
2020/12/09 00:49:27;;;;;;;3.53;2.30;;;;;;;17.13;52.65;100881.06;4857250;29;20473;-79
2020/12/09 00:51:52;;;;;;;2.90;2.20;;;;;;;17.13;52.77;100883.66;4813970;29;20038;-79
2020/12/09 00:54:17;;;;;;;3.20;2.40;;;;;;;17.13;52.39;100882.81;4814361;29;20141;-79
2020/12/09 00:56:43;;;;;;;2.80;2.15;;;;;;;17.13;52.67;100882.81;4850028;29;20062;-79
2020/12/09 00:59:09;;;;;;;2.97;2.20;;;;;;;17.13;52.62;100885.41;4843382;29;20057;-79
2020/12/09 01:01:34;;;;;;;2.53;2.10;;;;;;;17.11;52.75;100882.81;4843785;29;20501;-79
2020/12/09 01:04:00;;;;;;;3.20;2.38;;;;;;;17.12;52.66;100881.94;4843448;29;20045;-79
2020/12/09 01:06:25;;;;;;;2.85;2.30;;;;;;;17.11;52.70;100881.94;4843869;29;20046;-79
2020/12/09 01:08:50;;;;;;;2.78;2.20;;;;;;;17.13;52.58;100888.00;4850147;29;20113;-79
2020/12/09 01:11:18;;;;;;;2.63;2.20;;;;;;;17.10;52.76;100886.28;4828501;29;20090;-79
2020/12/09 01:13:44;;;;;;;3.05;2.20;;;;;;;17.10;52.43;100883.69;4813781;29;20029;-79
2020/12/09 01:16:14;;;;;;;2.38;1.95;;;;;;;17.10;52.80;100891.50;4828492;29;20058;-79
2020/12/09 01:18:39;;;;;;;3.80;2.58;;;;;;;17.10;52.77;100893.22;4828736;29;20446;-79
2020/12/09 01:21:04;;;;;;;2.78;2.20;;;;;;;17.10;52.50;100893.22;4844190;29;20041;-79
2020/12/09 01:23:30;;;;;;;3.00;2.47;;;;;;;17.08;52.48;100898.44;4828907;29;20046;-79
2020/12/09 01:25:55;;;;;;;2.75;2.10;;;;;;;17.08;52.41;100903.63;4830873;29;20397;-79
2020/12/09 01:28:20;;;;;;;2.75;2.03;;;;;;;17.09;52.71;100902.75;4798225;29;20038;-78
2020/12/09 01:30:46;;;;;;;2.35;1.98;;;;;;;17.09;52.52;100901.88;4794311;29;20478;-77
2020/12/09 01:33:11;;;;;;;2.70;2.28;;;;;;;17.08;52.27;100902.78;4816217;29;20434;-79
2020/12/09 01:35:36;;;;;;;3.03;2.50;;;;;;;17.07;52.38;100904.50;4810722;29;20393;-79
2020/12/09 01:38:02;;;;;;;2.95;2.20;;;;;;;17.06;52.33;100901.03;4799950;29;20405;-79
2020/12/09 01:40:27;;;;;;;2.95;2.30;;;;;;;17.08;52.82;100907.97;4838122;29;20033;-79
2020/12/09 01:42:52;;;;;;;2.67;2.10;;;;;;;17.07;52.26;100909.69;4834818;29;20033;-79
2020/12/09 01:45:18;;;;;;;2.72;2.40;;;;;;;17.06;52.50;100915.78;4849087;29;20034;-79
2020/12/09 01:47:45;;;;;;;3.00;2.22;;;;;;;17.05;52.27;100906.28;4850410;29;20058;-79
2020/12/09 01:50:13;;;;;;;3.08;2.28;;;;;;;17.05;52.55;100907.13;4837180;29;20037;-79
2020/12/09 01:52:38;;;;;;;2.40;2.10;;;;;;;17.05;52.46;100914.94;4848958;29;20108;-79
2020/12/09 01:55:04;;;;;;;2.53;1.90;;;;;;;17.04;52.38;100914.91;4829918;29;20085;-79
2020/12/09 01:57:29;;;;;;;2.83;2.15;;;;;;;17.04;52.49;100914.91;4845572;29;20030;-79
2020/12/09 01:59:54;;;;;;;2.92;2.25;;;;;;;17.03;52.38;100924.47;4828646;29;20054;-79
2020/12/09 02:02:20;;;;;;;2.83;2.15;;;;;;;17.03;52.33;100916.66;4813078;29;20046;-80
2020/12/09 02:04:46;;;;;;;2.72;2.03;;;;;;;17.03;52.36;100915.81;4845421;29;20071;-79
2020/12/09 02:07:11;;;;;;;4.82;2.40;;;;;;;17.02;52.39;100920.13;4835348;29;20067;-79
2020/12/09 02:09:37;;;;;;;2.58;2.30;;;;;;;17.02;52.18;100920.13;4832319;29;20054;-79
2020/12/09 02:12:02;;;;;;;2.72;2.20;;;;;;;17.01;52.16;100913.22;4812800;29;20126;-79
2020/12/09 02:14:27;;;;;;;3.20;2.33;;;;;;;17.02;52.41;100924.47;4823260;29;20040;-79
2020/12/09 02:16:55;;;;;;;2.78;2.17;;;;;;;17.02;52.47;100921.88;4851949;29;20033;-79
2020/12/09 02:19:21;;;;;;;2.60;2.15;;;;;;;17.01;52.21;100915.81;4829303;29;20046;-79
2020/12/09 02:21:46;;;;;;;2.80;2.33;;;;;;;17.01;52.06;100922.75;4834304;29;20030;-79
2020/12/09 02:24:12;;;;;;;2.42;2.13;;;;;;;17.02;52.13;100919.25;4843914;29;20056;-79
2020/12/09 02:26:49;;;;;;;2.35;2.10;;;;;;;17.00;52.04;100915.81;4839365;29;20026;-79
2020/12/09 02:29:14;;;;;;;3.13;2.15;;;;;;;17.00;52.09;100923.59;4831288;29;20073;-79
2020/12/09 02:31:40;;;;;;;2.78;2.22;;;;;;;16.98;52.37;100922.75;4839590;29;20069;-79
2020/12/09 02:34:07;;;;;;;2.30;2.00;;;;;;;16.98;52.27;100918.41;4813608;29;20470;-79
2020/12/09 02:36:33;;;;;;;2.55;2.20;;;;;;;16.98;52.40;100910.59;4830073;29;20034;-79
2020/12/09 02:39:01;;;;;;;3.53;2.00;;;;;;;17.00;52.42;100908.88;4823708;29;20099;-79
2020/12/09 02:41:26;;;;;;;2.45;1.90;;;;;;;16.98;52.29;100901.97;4826076;29;20069;-79
2020/12/09 02:43:52;;;;;;;2.38;1.60;;;;;;;17.00;52.57;100916.66;4838780;29;20053;-79
2020/12/09 02:46:17;;;;;;;4.53;1.95;;;;;;;17.00;52.43;100916.66;4809544;29;20417;-79
2020/12/09 02:48:42;;;;;;;2.85;2.13;;;;;;;16.98;52.48;100905.41;4827700;29;20039;-79
2020/12/09 02:51:08;;;;;;;2.65;2.25;;;;;;;17.00;52.48;100908.88;4816252;29;20034;-80
2020/12/09 02:53:33;;;;;;;2.28;1.80;;;;;;;17.00;52.48;100908.88;4813345;29;20054;-79
2020/12/09 02:55:59;;;;;;;1.98;1.77;;;;;;;17.01;52.19;100908.00;4828268;29;20046;-79
2020/12/09 02:58:25;;;;;;;1.77;1.55;;;;;;;17.00;52.64;100905.41;4829780;29;20034;-79
2020/12/09 03:00:51;;;;;;;2.83;2.28;;;;;;;16.99;52.50;100903.69;4844297;29;20438;-79
2020/12/09 03:03:16;;;;;;;2.88;1.70;;;;;;;16.98;52.51;100900.22;4812345;29;20073;-79
2020/12/09 03:05:42;;;;;;;2.35;1.92;;;;;;;16.98;52.43;100907.16;4841259;29;20030;-79
2020/12/09 03:08:07;;;;;;;2.03;1.80;;;;;;;16.97;52.49;100903.69;4825729;29;20052;-79
2020/12/09 03:10:32;;;;;;;2.92;2.13;;;;;;;16.94;52.52;100898.53;4824511;29;20126;-79
2020/12/09 03:12:58;;;;;;;2.55;1.85;;;;;;;16.96;52.42;100896.78;4808114;29;20035;-79
2020/12/09 03:15:24;;;;;;;2.65;1.88;;;;;;;16.96;52.25;100898.50;4825375;29;20121;-79
2020/12/09 03:17:49;;;;;;;2.63;1.90;;;;;;;16.94;52.44;100902.84;4818523;29;20027;-79
2020/12/09 03:20:15;;;;;;;2.75;2.10;;;;;;;16.92;52.31;100900.28;4828296;29;20038;-79
2020/12/09 03:22:40;;;;;;;2.70;2.10;;;;;;;16.92;52.38;100902.88;4816834;29;20042;-79
2020/12/09 03:25:05;;;;;;;2.22;1.90;;;;;;;16.91;52.47;100898.53;4839048;29;20030;-79
2020/12/09 03:27:31;;;;;;;2.30;2.00;;;;;;;16.93;52.47;100911.53;4824428;29;20098;-79
2020/12/09 03:29:59;;;;;;;2.70;2.22;;;;;;;16.91;52.41;100914.13;4838267;29;20117;-78
2020/12/09 03:32:24;;;;;;;2.30;1.98;;;;;;;16.89;52.46;100909.81;4838395;29;20389;-79
2020/12/09 03:34:49;;;;;;;2.13;1.80;;;;;;;16.89;52.34;100915.00;4823262;29;20034;-79
2020/12/09 03:37:15;;;;;;;3.50;2.20;;;;;;;16.88;52.46;100908.09;4837684;29;20038;-79
2020/12/09 03:39:40;;;;;;;2.75;2.20;;;;;;;16.87;52.36;100917.59;4835068;29;20027;-79
2020/12/09 03:42:05;;;;;;;2.63;2.17;;;;;;;16.86;52.32;100915.91;4819779;29;20030;-79
2020/12/09 03:44:31;;;;;;;3.65;2.17;;;;;;;16.87;52.33;100917.59;4824543;29;20122;-79
2020/12/09 03:46:56;;;;;;;2.45;2.15;;;;;;;16.86;52.37;100921.09;4807654;29;20126;-78
2020/12/09 03:49:23;;;;;;;2.47;2.00;;;;;;;16.86;52.23;100916.75;4807624;29;20039;-79
2020/12/09 03:51:49;;;;;;;2.60;2.08;;;;;;;16.86;52.26;100919.34;4822677;29;20034;-79
2020/12/09 03:54:14;;;;;;;2.47;1.90;;;;;;;16.86;52.30;100921.94;4807557;29;20502;-79
2020/12/09 03:56:39;;;;;;;2.72;2.20;;;;;;;16.84;52.25;100920.25;4829748;29;20097;-79
2020/12/09 03:59:05;;;;;;;2.80;2.03;;;;;;;16.85;52.20;100924.53;4838762;29;20038;-79
2020/12/09 04:01:30;;;;;;;2.40;2.20;;;;;;;16.84;52.25;100923.69;4825808;29;20043;-79
2020/12/09 04:03:55;;;;;;;4.75;2.22;;;;;;;16.82;52.33;100920.22;4829043;29;20034;-79
2020/12/09 04:06:21;;;;;;;2.22;1.83;;;;;;;16.82;52.51;100919.38;4831223;29;20142;-79
2020/12/09 04:08:46;;;;;;;2.60;2.20;;;;;;;16.83;52.03;100915.91;4839597;29;20151;-79
2020/12/09 04:11:11;;;;;;;2.53;2.05;;;;;;;16.83;52.07;100915.91;4811766;29;20042;-79
2020/12/09 04:13:37;;;;;;;2.90;2.10;;;;;;;16.82;52.02;100914.19;4840754;29;20054;-79
2020/12/09 04:16:02;;;;;;;2.70;2.15;;;;;;;16.80;52.13;100906.38;4824488;29;20026;-79
2020/12/09 04:18:27;;;;;;;2.28;1.88;;;;;;;16.81;52.32;100910.72;4831018;29;20027;-79
2020/12/09 04:20:53;;;;;;;2.20;1.92;;;;;;;16.82;52.35;100911.59;4811141;29;20180;-79
2020/12/09 04:23:18;;;;;;;2.30;2.10;;;;;;;16.79;51.96;100911.56;4832494;29;20050;-79
2020/12/09 04:25:43;;;;;;;2.17;1.98;;;;;;;16.78;51.95;100913.28;4811385;29;20038;-79
2020/12/09 04:28:09;;;;;;;2.33;2.13;;;;;;;16.80;52.21;100915.94;4826990;29;20038;-79
2020/12/09 04:30:34;;;;;;;2.58;2.20;;;;;;;16.78;52.12;100923.69;4841133;29;20069;-79
2020/12/09 04:32:59;;;;;;;2.83;2.00;;;;;;;16.79;52.03;100916.78;4825742;29;20481;-80
2020/12/09 04:35:25;;;;;;;2.22;2.00;;;;;;;16.78;52.08;100915.03;4818783;29;20034;-79
2020/12/09 04:37:55;;;;;;;2.75;2.13;;;;;;;16.77;52.04;100918.50;4825361;29;20061;-79
2020/12/09 04:40:23;;;;;;;2.53;2.33;;;;;;;16.76;52.05;100920.22;4825486;29;20474;-79
2020/12/09 04:42:57;;;;;;;2.72;2.10;;;;;;;16.77;52.07;100928.91;4839725;29;20049;-79
2020/12/09 04:45:23;;;;;;;2.17;1.98;;;;;;;16.75;51.98;100933.25;4826751;29;20030;-79
2020/12/09 04:47:59;;;;;;;2.60;2.20;;;;;;;16.76;52.00;100929.75;4825915;29;20067;-79
2020/12/09 04:50:27;;;;;;;2.55;1.98;;;;;;;16.77;51.94;100928.91;4826239;29;20034;-79
2020/12/09 04:53:31;;;;;;;2.47;2.05;;;;;;;16.74;51.79;100918.50;4833434;29;20434;-79
2020/12/09 04:55:59;;;;;;;3.00;2.10;;;;;;;16.77;52.15;100921.13;4792912;29;20586;-79
2020/12/09 04:58:45;;;;;;;2.67;2.30;;;;;;;16.73;51.90;100928.06;4805679;29;22389;-79
2020/12/09 05:01:13;;;;;;;3.00;2.28;;;;;;;16.74;51.84;100939.31;4810425;29;20042;-79
2020/12/09 05:03:47;;;;;;;2.85;2.40;;;;;;;16.71;52.01;100937.59;4825873;29;20431;-79
2020/12/09 05:06:14;;;;;;;;;;;;;;;16.71;51.73;100932.38;4825029;29;20026;-80
2020/12/09 05:08:48;;;;;;;2.30;2.10;;;;;;;16.71;51.87;100935.00;4826021;29;19913;-80
2020/12/09 05:11:14;;;;;;;2.55;1.98;;;;;;;16.73;51.72;100929.78;4829023;29;20507;-79
2020/12/09 05:13:42;;;;;;;2.67;2.00;;;;;;;16.73;51.85;100935.00;4806420;29;20106;-79
2020/12/09 05:16:16;;;;;;;3.08;2.40;;;;;;;16.72;51.80;100928.03;4836974;29;20040;-79
2020/12/09 05:18:43;;;;;;;2.25;2.03;;;;;;;16.70;51.71;100933.28;4831489;29;20558;-79
2020/12/09 05:21:12;;;;;;;2.70;2.40;;;;;;;16.71;51.97;100936.72;4812951;29;20053;-79
2020/12/09 05:23:44;;;;;;;2.55;2.10;;;;;;;16.71;52.01;100939.31;4841327;29;20056;-79
2020/12/09 05:26:18;;;;;;;2.33;2.13;;;;;;;16.72;51.87;100938.44;4827725;29;20033;-79
2020/12/09 05:28:43;;;;;;;3.78;2.13;;;;;;;16.72;51.89;100941.03;4828109;29;20057;-79
2020/12/09 05:31:19;;;;;;;2.75;2.13;;;;;;;16.72;52.02;100947.09;4839085;29;20062;-79
2020/12/09 05:33:44;;;;;;;2.20;2.00;;;;;;;16.71;52.13;100950.56;4834863;29;20026;-79
2020/12/09 05:36:09;;;;;;;2.45;2.00;;;;;;;16.72;52.00;100952.28;4841002;29;20086;-81
2020/12/09 05:38:35;;;;;;;1.98;1.63;;;;;;;16.73;52.03;100954.03;4813985;29;20507;-80
2020/12/09 05:41:00;;;;;;;2.67;2.03;;;;;;;16.73;51.92;100953.19;4815843;29;20038;-81
2020/12/09 05:43:26;;;;;;;2.25;1.83;;;;;;;16.74;52.08;100955.75;4829460;29;20038;-80
2020/12/09 05:45:51;;;;;;;2.40;1.80;;;;;;;16.77;51.92;100965.28;4830331;29;20030;-80
2020/12/09 05:48:18;;;;;;;2.58;1.80;;;;;;;16.76;51.98;100967.00;4850250;29;20046;-81
2020/12/09 05:50:45;;;;;;;2.75;1.90;;;;;;;16.77;52.03;100975.69;4824763;29;20493;-80
2020/12/09 05:53:44;;;;;;;3.25;1.80;;;;;;;16.78;52.04;100982.59;4836335;29;20037;-82
2020/12/09 05:56:17;;;;;;;2.03;1.80;;;;;;;16.78;52.13;100987.78;4835017;29;20049;-82
2020/12/09 05:58:47;;;;;;;1.95;1.65;;;;;;;16.77;52.03;100983.50;4839122;29;20095;-82
2020/12/09 06:01:24;;;;;;;2.42;1.85;;;;;;;16.77;52.37;100988.69;4829462;29;20045;-82
2020/12/09 06:03:56;;;;;;;2.20;2.00;;;;;;;16.78;52.33;100980.00;4824375;29;20041;-82
2020/12/09 06:06:27;;;;;;;4.93;3.25;;;;;;;16.87;52.13;100977.41;4845633;29;20553;-82
2020/12/09 06:09:01;;;;;;;14.43;5.35;;;;;;;17.03;52.42;100976.47;4833212;29;20057;-82
2020/12/09 06:32:53;;;;;;;9.32;3.83;;;;;;;17.20;52.33;100988.50;5726308;23;20125;-81
2020/12/09 06:35:19;;;;;;;9.88;3.53;;;;;;;17.22;52.13;100986.75;4854522;29;20038;-81
2020/12/09 06:38:11;;;;;;;7.25;3.40;;;;;;;17.22;52.14;100985.03;4850366;29;20049;-81
2020/12/09 06:40:56;;;;;;;7.20;3.35;;;;;;;17.22;51.94;100989.34;4858829;29;20457;-81
2020/12/09 06:43:22;;;;;;;7.28;3.60;;;;;;;17.21;52.18;100988.50;4846728;29;20150;-81
2020/12/09 06:45:48;;;;;;;5.72;3.65;;;;;;;17.21;51.94;100985.91;4843945;29;20124;-81
2020/12/09 06:48:15;;;;;;;6.82;3.50;;;;;;;17.21;52.03;100980.69;4830125;29;20034;-81
2020/12/09 06:50:44;;;;;;;6.88;4.05;;;;;;;17.22;51.93;100990.25;4843565;29;20026;-81
2020/12/09 06:53:18;;;;;;;7.18;3.00;;;;;;;17.24;51.86;101000.63;4843133;29;20022;-81
2020/12/09 06:55:45;;;;;;;6.88;2.88;;;;;;;17.24;51.64;100990.22;4834563;29;20041;-81
2020/12/09 06:58:40;;;;;;;5.65;3.30;;;;;;;17.21;51.74;100993.69;4830801;29;20081;-81
2020/12/09 07:01:08;;;;;;;4.47;3.08;;;;;;;17.24;51.80;100987.59;4820055;29;20042;-81
2020/12/09 07:03:37;;;;;;;4.78;3.10;;;;;;;17.24;51.68;100985.00;4828402;29;20022;-81
2020/12/09 07:06:20;;;;;;;5.63;3.08;;;;;;;17.24;51.73;100985.00;4798205;29;20034;-81
2020/12/09 07:08:47;;;;;;;4.72;2.95;;;;;;;17.21;51.64;100988.50;4842912;29;20026;-80
2020/12/09 07:11:12;;;;;;;4.65;2.92;;;;;;;17.22;51.61;100990.25;4835846;29;20038;-80
2020/12/09 07:13:42;;;;;;;4.03;2.67;;;;;;;17.23;51.71;101004.09;4833021;29;20041;-80
2020/12/09 07:16:08;;;;;;;3.92;2.97;;;;;;;17.21;51.58;100998.03;4839220;29;20034;-81
2020/12/09 07:18:37;;;;;;;5.78;3.10;;;;;;;17.22;51.35;101003.25;4860678;29;20026;-82
2020/12/09 07:21:05;;;;;;;5.68;3.00;;;;;;;17.20;51.56;100999.78;4846983;29;20503;-81
2020/12/09 07:23:30;;;;;;;3.92;2.90;;;;;;;17.20;51.77;101005.00;4846246;29;20520;-81
2020/12/09 07:25:59;;;;;;;4.82;3.05;;;;;;;17.19;51.61;101002.38;4852668;29;20034;-81
2020/12/09 07:28:25;;;;;;;4.32;2.75;;;;;;;17.19;51.31;101010.19;4860537;29;20026;-80
2020/12/09 07:30:50;;;;;;;5.03;2.90;;;;;;;17.21;51.58;101013.66;4861523;29;20384;-81
2020/12/09 07:33:16;;;;;;;5.40;3.00;;;;;;;17.19;51.31;101011.03;4846595;29;20090;-81
2020/12/09 07:35:43;;;;;;;5.20;2.97;;;;;;;17.21;51.72;101011.03;4845975;29;20495;-81
2020/12/09 07:38:08;;;;;;;5.45;2.80;;;;;;;17.19;51.49;101011.03;4848795;29;20032;-81
2020/12/09 07:40:34;;;;;;;4.28;2.70;;;;;;;17.21;51.30;101018.84;4848161;29;20029;-81
2020/12/09 07:43:11;;;;;;;4.00;2.50;;;;;;;17.19;51.32;101011.03;4848098;29;20112;-80
2020/12/09 07:45:41;;;;;;;7.50;3.35;;;;;;;17.22;51.22;101012.75;4847686;29;20033;-81
2020/12/09 07:48:09;;;;;;;4.45;2.80;;;;;;;17.20;50.93;101018.00;4847190;29;20124;-81
2020/12/09 07:50:36;;;;;;;3.67;2.72;;;;;;;17.22;51.16;101017.97;4847816;29;20067;-81
2020/12/09 07:53:02;;;;;;;4.63;3.08;;;;;;;17.22;51.39;101012.75;4829917;29;20041;-81
2020/12/09 07:55:28;;;;;;;3.72;2.42;;;;;;;17.22;51.15;101017.97;4854549;29;20026;-82
2020/12/09 07:58:08;;;;;;;4.65;2.60;;;;;;;17.22;51.26;101012.75;4860719;29;20109;-81
2020/12/09 08:00:39;;;;;;;4.05;2.53;;;;;;;17.21;51.24;101011.91;4847902;29;20029;-81
2020/12/09 08:03:05;;;;;;;4.32;2.85;;;;;;;17.22;51.23;101007.56;4844530;29;20082;-81
2020/12/09 08:05:37;;;;;;;3.63;2.40;;;;;;;17.23;51.10;101015.38;4848177;29;20033;-81
2020/12/09 08:08:10;;;;;;;4.25;2.38;;;;;;;17.24;50.95;101018.81;4829209;29;20033;-81
2020/12/09 08:10:37;;;;;;;3.53;2.15;;;;;;;17.24;51.04;101026.63;4852550;29;20092;-82
2020/12/09 08:13:16;;;;;;;4.45;2.45;;;;;;;17.24;51.01;101029.22;4853353;29;20029;-82
2020/12/09 08:19:07;;;;;;;5.60;2.58;;;;;;;17.24;50.97;101026.63;4860845;29;20044;-82
2020/12/09 08:21:33;;;;;;;3.28;2.20;;;;;;;17.26;51.00;101022.28;4849187;29;20082;-81
2020/12/09 08:23:59;;;;;;;3.17;2.50;;;;;;;17.25;50.93;101026.63;4837357;29;20029;-82
2020/12/09 08:26:36;;;;;;;4.72;2.45;;;;;;;17.27;51.18;101024.03;4818110;29;20129;-82
2020/12/09 08:29:02;;;;;;;2.88;2.15;;;;;;;17.25;51.15;101024.03;4850550;29;20060;-82
2020/12/09 08:31:28;;;;;;;4.03;2.22;;;;;;;17.27;50.83;101021.41;4835810;29;20033;-82
2020/12/09 08:33:53;;;;;;;3.22;2.22;;;;;;;17.28;50.54;101015.34;4845916;29;20046;-82
2020/12/09 08:36:20;;;;;;;4.30;2.60;;;;;;;17.27;50.83;101014.47;4846144;29;20495;-81
2020/12/09 08:39:06;;;;;;;3.58;2.47;;;;;;;17.28;50.67;101017.94;4835258;29;20030;-81
2020/12/09 08:41:34;;;;;;;3.83;2.53;;;;;;;17.28;50.62;101018.78;4864702;29;20517;-81
2020/12/09 08:44:02;;;;;;;3.20;2.70;;;;;;;17.30;50.86;101024.00;4865771;29;20030;-81
2020/12/09 08:46:29;;;;;;;4.65;2.40;;;;;;;17.30;50.91;101026.59;4861631;29;20124;-82
2020/12/09 08:48:56;;;;;;;2.97;2.47;;;;;;;17.32;50.45;101026.59;4842054;29;20033;-81
2020/12/09 08:51:26;;;;;;;2.88;2.45;;;;;;;17.32;50.64;101018.78;4859812;29;20034;-80
2020/12/09 08:53:53;;;;;;;5.65;2.60;;;;;;;17.36;50.52;101016.16;4863424;29;20090;-81
2020/12/09 08:56:55;;;;;;;3.95;2.45;;;;;;;17.38;50.58;101013.56;4859232;29;20044;-79
2020/12/09 08:59:21;;;;;;;2.85;2.33;;;;;;;17.37;50.60;101015.28;4847497;29;20485;-81
2020/12/09 09:01:46;;;;;;;4.18;2.63;;;;;;;17.38;50.75;101022.22;4845699;29;20041;-81
2020/12/09 09:04:14;;;;;;;4.53;2.85;;;;;;;17.39;50.76;101018.72;4847438;29;20037;-81
2020/12/09 09:06:39;;;;;;;3.88;2.40;;;;;;;17.39;50.52;101025.69;4844443;29;20069;-81
2020/12/09 09:09:04;;;;;;;3.85;2.60;;;;;;;17.40;50.57;101017.03;4854382;29;20029;-81
2020/12/09 09:11:30;;;;;;;4.35;2.33;;;;;;;17.41;50.45;101009.19;4836589;29;20026;-81
2020/12/09 09:13:56;;;;;;;3.13;2.47;;;;;;;17.41;50.56;101016.13;4831443;29;20366;-81
2020/12/09 09:16:21;;;;;;;3.42;2.60;;;;;;;17.38;50.35;101019.63;4858981;29;20370;-81
2020/12/09 09:18:47;;;;;;;4.03;2.60;;;;;;;17.39;50.52;101020.47;4816655;29;20473;-81
2020/12/09 09:21:13;;;;;;;3.65;2.50;;;;;;;17.39;50.32;101026.53;4858620;29;20076;-81
2020/12/09 09:23:39;;;;;;;3.08;2.67;;;;;;;17.38;50.21;101019.63;4843807;29;20164;-81
2020/12/09 09:26:04;;;;;;;3.65;2.85;;;;;;;17.37;50.33;101020.47;4856944;29;20130;-80
2020/12/09 09:28:29;;;;;;;3.47;3.05;;;;;;;17.37;50.24;101017.03;4846400;29;20033;-81
2020/12/09 09:30:55;;;;;;;3.17;2.53;;;;;;;17.39;50.48;101021.34;4831478;29;20029;-81
2020/12/09 09:33:20;;;;;;;3.33;2.95;;;;;;;17.39;50.51;101030.88;4845878;29;20546;-81
2020/12/09 09:35:45;;;;;;;3.45;2.67;;;;;;;17.40;50.06;101033.50;4843869;29;20046;-81
2020/12/09 09:38:11;;;;;;;2.83;2.50;;;;;;;17.41;49.97;101031.75;4833181;29;20040;-81
2020/12/09 09:40:36;;;;;;;3.30;2.97;;;;;;;17.41;50.25;101036.94;4835859;29;20037;-81
2020/12/09 09:43:01;;;;;;;3.40;2.88;;;;;;;17.41;50.03;101024.78;4843204;29;20034;-81
2020/12/09 09:45:27;;;;;;;3.60;3.08;;;;;;;17.43;50.15;101025.66;4843642;29;20045;-81
2020/12/09 09:47:52;;;;;;;4.00;2.83;;;;;;;17.44;50.02;101030.00;4816047;29;20120;-81
2020/12/09 09:50:18;;;;;;;3.17;2.88;;;;;;;17.43;50.27;101024.78;4846228;29;20033;-81
2020/12/09 09:52:43;;;;;;;3.05;2.75;;;;;;;17.45;50.26;101030.84;4842991;29;20029;-81
2020/12/09 09:55:09;;;;;;;3.72;2.90;;;;;;;17.44;49.91;101021.31;4818204;29;20057;-81
2020/12/09 09:57:36;;;;;;;3.72;2.80;;;;;;;17.45;49.87;101031.72;4838157;29;20040;-81
2020/12/09 10:00:04;;;;;;;3.53;2.80;;;;;;;17.47;49.68;101027.38;4862705;29;20041;-81
2020/12/09 10:02:30;;;;;;;4.00;3.00;;;;;;;17.45;49.77;101021.31;4846260;29;20041;-81
2020/12/09 10:04:55;;;;;;;3.35;2.90;;;;;;;17.47;49.77;101019.56;4826363;29;20038;-81
2020/12/09 10:07:20;;;;;;;4.07;3.17;;;;;;;17.51;49.67;101011.72;4842363;29;20037;-81
2020/12/09 10:09:45;;;;;;;3.58;3.17;;;;;;;17.51;49.40;101014.31;4843728;29;20006;-80
2020/12/09 10:12:11;;;;;;;3.72;3.10;;;;;;;17.48;49.54;101016.09;4862985;29;20042;-81
2020/12/09 10:14:36;;;;;;;3.30;2.88;;;;;;;17.51;49.44;101019.53;4823378;29;20484;-81
2020/12/09 10:17:02;;;;;;;3.55;2.90;;;;;;;17.50;49.66;101007.41;4842642;29;20033;-79
2020/12/09 10:19:27;;;;;;;3.10;2.80;;;;;;;17.48;49.68;101015.22;4835787;29;20030;-82
2020/12/09 10:21:53;;;;;;;3.38;3.08;;;;;;;17.46;49.80;101006.56;4845572;29;20057;-80
2020/12/09 10:24:18;;;;;;;3.70;3.10;;;;;;;17.43;49.70;101007.44;4850470;29;20460;-80
2020/12/09 10:26:44;;;;;;;3.35;3.03;;;;;;;17.45;49.63;101012.63;4869051;29;20040;-80
2020/12/09 10:29:10;;;;;;;4.47;3.22;;;;;;;17.45;49.67;101003.09;4864847;29;20033;-79
2020/12/09 10:31:45;;;;;;;3.58;3.17;;;;;;;17.47;49.51;100996.16;4831644;29;20037;-80
2020/12/09 10:34:12;;;;;;;3.80;3.20;;;;;;;17.47;49.46;100997.88;4845904;29;20041;-80
2020/12/09 10:36:39;;;;;;;3.42;3.13;;;;;;;17.49;49.74;100998.75;4843449;29;20037;-80
2020/12/09 10:39:08;;;;;;;3.50;3.20;;;;;;;17.48;49.51;100997.88;4840988;29;20025;-80
2020/12/09 10:41:34;;;;;;;3.45;3.10;;;;;;;17.48;49.50;100990.09;4835256;29;20034;-80
2020/12/09 10:44:00;;;;;;;3.50;3.20;;;;;;;17.48;49.68;100999.59;4844350;29;20032;-79
2020/12/09 10:46:31;;;;;;;3.88;3.47;;;;;;;17.50;49.33;100997.00;4844236;29;20034;-80
2020/12/09 10:48:57;;;;;;;3.50;3.20;;;;;;;17.50;49.49;100991.78;4825643;29;20031;-80
2020/12/09 10:51:23;;;;;;;3.53;3.17;;;;;;;17.51;49.41;100986.59;4824165;29;20037;-80
2020/12/09 10:53:48;;;;;;;3.53;3.10;;;;;;;17.52;49.81;100979.66;4839227;29;20034;-80
2020/12/09 10:56:13;;;;;;;3.45;3.15;;;;;;;17.53;49.33;100986.56;4827047;29;20497;-80
2020/12/09 10:58:39;;;;;;;3.30;3.00;;;;;;;17.51;49.48;100977.91;4842077;29;20050;-80
2020/12/09 11:01:04;;;;;;;3.60;3.10;;;;;;;17.52;49.29;100982.25;4842572;29;20038;-80
2020/12/09 11:03:30;;;;;;;3.40;3.05;;;;;;;17.51;48.98;100980.50;4828030;29;20466;-79
2020/12/09 11:05:55;;;;;;;3.22;2.92;;;;;;;17.51;49.44;100986.59;4842243;29;20042;-80
2020/12/09 11:08:21;;;;;;;3.83;3.10;;;;;;;17.51;49.37;100988.31;4842664;29;20029;-79
2020/12/09 11:10:46;;;;;;;3.30;3.00;;;;;;;17.51;49.52;100980.50;4843642;29;20034;-80
2020/12/09 11:13:12;;;;;;;3.53;3.22;;;;;;;17.50;49.52;100977.03;4847361;29;20034;-80
2020/12/09 11:15:37;;;;;;;3.70;3.28;;;;;;;17.51;49.02;100970.97;4831167;29;20045;-80
2020/12/09 11:18:03;;;;;;;3.40;3.10;;;;;;;17.51;49.26;100972.69;4846138;29;20065;-80
2020/12/09 11:20:28;;;;;;;3.30;2.88;;;;;;;17.50;49.33;100964.03;4844726;29;20473;-80
2020/12/09 11:22:55;;;;;;;3.15;2.85;;;;;;;17.51;49.51;100965.78;4833154;29;20031;-80
2020/12/09 11:25:23;;;;;;;3.08;2.78;;;;;;;17.52;49.20;100967.50;4845252;29;20030;-80
2020/12/09 11:27:50;;;;;;;3.17;2.75;;;;;;;17.53;49.01;100964.03;4847134;29;20033;-80
2020/12/09 11:30:15;;;;;;;4.25;3.15;;;;;;;17.55;49.12;100956.19;4845854;29;20057;-80
2020/12/09 11:32:41;;;;;;;3.92;3.28;;;;;;;17.56;49.04;100963.13;4842302;29;20508;-80
2020/12/09 11:35:07;;;;;;;3.53;3.22;;;;;;;17.55;49.14;100964.00;4835875;29;20105;-80
2020/12/09 11:37:33;;;;;;;3.83;3.05;;;;;;;17.56;49.12;100963.13;4846029;29;20030;-80
2020/12/09 11:39:58;;;;;;;3.67;3.05;;;;;;;17.56;49.17;100950.97;4849032;29;20034;-79
2020/12/09 11:42:24;;;;;;;3.15;2.85;;;;;;;17.55;49.12;100943.19;4850530;29;20030;-78
2020/12/09 11:44:50;;;;;;;3.42;2.88;;;;;;;17.58;49.00;100940.56;4837242;29;20038;-78
2020/12/09 11:47:15;;;;;;;3.50;3.03;;;;;;;17.57;49.13;100946.63;4829088;29;20187;-77
2020/12/09 11:49:40;;;;;;;3.08;2.78;;;;;;;17.56;48.96;100943.19;4833142;29;20555;-76